Time;durP1;ratioP1;P1;durP2;ratioP2;P2;SDS_P1;SDS_P2;PMS_P1;PMS_P2;Temp;Humidity;BMP_temperature;BMP_pressure;BME280_temperature;BME280_humidity;BME280_pressure;Samples;Min_cycle;Max_cycle;Signal;HPM_P1;HPM_P2
2021/01/05 00:00:34;;;;;;;10.75;6.68;;;2.20;99.90;;;;;;4951760;28;20219;-75
2021/01/05 00:03:02;;;;;;;8.23;6.90;;;2.10;99.90;;;;;;4953076;28;20274;-75
2021/01/05 00:05:29;;;;;;;8.60;6.55;;;2.10;1.00;;;;;;4958449;28;20214;-74
2021/01/05 00:07:56;;;;;;;8.32;6.85;;;2.10;99.90;;;;;;4953247;28;20282;-74
2021/01/05 00:10:23;;;;;;;6.88;5.93;;;1.90;1.00;;;;;;4950313;28;20215;-75
2021/01/05 00:12:50;;;;;;;8.70;6.15;;;2.00;1.00;;;;;;4949566;28;20234;-75
2021/01/05 00:15:18;;;;;;;8.85;6.13;;;2.00;1.00;;;;;;4951864;28;20274;-75
2021/01/05 00:17:45;;;;;;;9.90;6.07;;;2.00;99.90;;;;;;4950077;28;20237;-75
2021/01/05 00:20:17;;;;;;;6.85;5.25;;;2.10;1.00;;;;;;4951070;28;20241;-75
2021/01/05 00:22:44;;;;;;;7.07;5.35;;;2.20;99.90;;;;;;4948657;28;20617;-75
2021/01/05 00:25:12;;;;;;;10.68;6.32;;;2.30;99.90;;;;;;4951559;28;20206;-74
2021/01/05 00:27:40;;;;;;;7.57;6.00;;;2.50;40.40;;;;;;4947045;28;20220;-74
2021/01/05 00:30:10;;;;;;;6.90;6.15;;;2.50;1.00;;;;;;4949030;28;20219;-74
2021/01/05 00:32:40;;;;;;;8.88;5.30;;;2.50;1.00;;;;;;4949447;28;20253;-76
2021/01/05 00:35:09;;;;;;;5.57;4.28;;;2.40;99.90;;;;;;4948358;28;20214;-74
2021/01/05 00:37:37;;;;;;;7.20;5.07;;;2.10;1.00;;;;;;4949457;28;20215;-75
2021/01/05 00:40:06;;;;;;;6.38;4.85;;;2.00;82.20;;;;;;4948680;28;20213;-75
2021/01/05 00:42:33;;;;;;;7.15;5.50;;;2.10;99.90;;;;;;4965098;28;20244;-75
2021/01/05 00:45:00;;;;;;;6.40;4.43;;;2.10;99.90;;;;;;4950112;28;20223;-75
2021/01/05 00:47:27;;;;;;;6.22;5.10;;;1.90;1.00;;;;;;4950521;28;20273;-76
2021/01/05 00:49:54;;;;;;;6.60;4.70;;;2.00;70.90;;;;;;4950029;28;20202;-72
2021/01/05 00:52:21;;;;;;;6.13;5.07;;;2.10;1.00;;;;;;4947545;28;20232;-74
2021/01/05 00:54:49;;;;;;;6.30;4.70;;;2.20;1.00;;;;;;4950445;28;20280;-73
2021/01/05 00:57:16;;;;;;;6.25;4.43;;;2.20;99.90;;;;;;4953146;28;20212;-74
2021/01/05 00:59:43;;;;;;;7.25;5.38;;;2.20;99.90;;;;;;4955137;28;20673;-73
2021/01/05 01:02:13;;;;;;;7.28;4.80;;;2.10;99.90;;;;;;4947953;28;20233;-74
2021/01/05 01:04:40;;;;;;;7.00;4.97;;;2.10;1.00;;;;;;4948569;29;20310;-74
2021/01/05 01:07:07;;;;;;;6.68;4.38;;;2.10;1.00;;;;;;4949027;28;20287;-74
2021/01/05 01:09:34;;;;;;;6.72;5.07;;;2.20;1.00;;;;;;4948934;28;20213;-74
2021/01/05 01:12:05;;;;;;;6.95;5.38;;;2.20;99.90;;;;;;4949793;28;20250;-74
2021/01/05 01:14:33;;;;;;;8.05;5.70;;;2.20;1.00;;;;;;4947674;28;20238;-73
2021/01/05 01:17:01;;;;;;;7.43;5.70;;;2.30;1.00;;;;;;4949457;28;20235;-73
2021/01/05 01:19:28;;;;;;;6.50;4.82;;;2.30;99.90;;;;;;4949791;28;20293;-74
2021/01/05 01:21:57;;;;;;;8.57;5.60;;;2.30;99.90;;;;;;4963833;28;20280;-73
2021/01/05 01:24:25;;;;;;;11.05;6.05;;;2.30;99.90;;;;;;4947670;29;20209;-74
2021/01/05 01:26:53;;;;;;;8.35;5.88;;;2.20;99.90;;;;;;4949666;28;20990;-74
2021/01/05 01:29:23;;;;;;;9.80;7.30;;;2.10;99.90;;;;;;4948411;28;20289;-74
2021/01/05 01:31:50;;;;;;;9.32;6.47;;;2.20;99.90;;;;;;4962782;28;20764;-74
2021/01/05 01:34:19;;;;;;;7.32;5.22;;;2.20;87.40;;;;;;4953846;28;20213;-74
2021/01/05 01:36:55;;;;;;;9.90;6.43;;;2.20;1.00;;;;;;4961582;28;20218;-73
2021/01/05 01:39:22;;;;;;;11.70;7.97;;;2.10;99.90;;;;;;4947864;28;20230;-74
2021/01/05 01:41:49;;;;;;;10.30;7.15;;;2.10;1.00;;;;;;4944891;28;20261;-73
2021/01/05 01:44:20;;;;;;;9.45;7.30;;;2.30;99.90;;;;;;4947497;28;20214;-75
2021/01/05 01:46:49;;;;;;;9.82;6.88;;;2.30;99.90;;;;;;4948154;29;20208;-75
2021/01/05 01:49:17;;;;;;;9.40;6.65;;;2.30;99.90;;;;;;4943802;29;20267;-74
2021/01/05 01:51:44;;;;;;;11.68;7.53;;;2.30;99.90;;;;;;4945742;28;20213;-74
2021/01/05 01:54:45;;;;;;;11.88;6.75;;;2.40;99.90;;;;;;4948848;28;20241;-74
2021/01/05 01:57:51;;;;;;;14.48;7.50;;;2.30;18.80;;;;;;4948685;28;20674;-74
2021/01/05 02:00:26;;;;;;;13.95;8.43;;;2.30;99.90;;;;;;4947861;29;20243;-73
2021/01/05 02:03:31;;;;;;;12.70;7.45;;;2.40;99.90;;;;;;4947122;28;20248;-74
2021/01/05 02:06:10;;;;;;;10.15;8.10;;;2.50;36.70;;;;;;4947967;28;20296;-74
2021/01/05 02:08:45;;;;;;;10.68;7.82;;;2.60;1.00;;;;;;4951834;28;20206;-73
2021/01/05 02:11:39;;;;;;;12.75;7.45;;;2.60;99.90;;;;;;4945986;28;20279;-73
2021/01/05 02:14:17;;;;;;;9.60;7.53;;;2.60;1.00;;;;;;4946527;28;20237;-76
2021/01/05 02:17:16;;;;;;;13.35;8.05;;;2.50;99.90;;;;;;4948545;29;20272;-73
2021/01/05 02:19:49;;;;;;;15.95;8.85;;;2.50;1.00;;;;;;4948052;28;20234;-74
2021/01/05 02:22:23;;;;;;;9.90;6.55;;;2.50;99.90;;;;;;4946220;29;20293;-73
2021/01/05 02:25:02;;;;;;;10.55;8.32;;;2.40;1.00;;;;;;4943841;28;20266;-73
2021/01/05 02:27:32;;;;;;;10.38;7.03;;;2.20;99.90;;;;;;4963091;28;20302;-74
2021/01/05 02:30:05;;;;;;;13.38;8.35;;;2.20;1.00;;;;;;4946162;28;20205;-74
2021/01/05 02:32:41;;;;;;;13.63;8.10;;;2.30;1.00;;;;;;4947447;28;20718;-74
2021/01/05 02:35:21;;;;;;;11.98;9.00;;;2.40;1.00;;;;;;4942462;29;20274;-73
2021/01/05 02:38:05;;;;;;;13.13;7.85;;;2.50;99.90;;;;;;4946901;28;20211;-73
2021/01/05 02:40:44;;;;;;;12.68;8.77;;;2.60;99.90;;;;;;4945699;28;20225;-73
2021/01/05 02:43:31;;;;;;;13.57;8.68;;;2.70;6.00;;;;;;4945811;28;20220;-73
2021/01/05 02:46:34;;;;;;;11.60;7.97;;;2.70;1.00;;;;;;4947890;29;20756;-72
2021/01/05 02:49:20;;;;;;;13.63;8.02;;;2.40;93.30;;;;;;4948111;29;20211;-73
2021/01/05 02:52:25;;;;;;;12.10;7.72;;;2.50;99.90;;;;;;4945147;29;20710;-73
2021/01/05 02:55:32;;;;;;;13.43;8.30;;;2.70;1.00;;;;;;4945781;29;20209;-73
2021/01/05 02:58:11;;;;;;;12.25;7.18;;;2.60;99.90;;;;;;4945904;29;20790;-73
2021/01/05 03:01:11;;;;;;;12.02;7.68;;;2.70;99.90;;;;;;4944005;28;20262;-73
2021/01/05 03:03:44;;;;;;;12.27;7.95;;;2.70;99.90;;;;;;4947012;28;20234;-74
2021/01/05 03:06:25;;;;;;;12.57;9.02;;;2.80;99.90;;;;;;4944653;28;20262;-73
2021/01/05 03:09:29;;;;;;;9.30;6.68;;;2.80;99.90;;;;;;4945891;28;20207;-74
2021/01/05 03:12:26;;;;;;;14.82;9.10;;;2.90;99.90;;;;;;4896880;28;20281;-73
2021/01/05 03:15:07;;;;;;;10.90;8.25;;;2.90;1.00;;;;;;4920704;28;20220;-73
2021/01/05 03:17:38;;;;;;;13.82;8.48;;;2.70;56.00;;;;;;4947044;28;20919;-73
2021/01/05 03:20:14;;;;;;;10.95;7.55;;;2.70;99.90;;;;;;4947690;29;20685;-73
2021/01/05 03:22:51;;;;;;;8.73;6.93;;;2.70;99.90;;;;;;4947272;28;20234;-73
2021/01/05 03:25:21;;;;;;;11.70;7.75;;;2.80;99.90;;;;;;4950982;29;20216;-73
2021/01/05 03:27:50;;;;;;;8.93;7.13;;;2.90;99.90;;;;;;4948626;29;20216;-73
2021/01/05 03:30:25;;;;;;;13.48;7.93;;;2.90;99.90;;;;;;4950606;29;20352;-73
2021/01/05 03:32:53;;;;;;;12.95;8.68;;;2.90;84.00;;;;;;4949966;29;20241;-73
2021/01/05 03:35:21;;;;;;;14.02;8.68;;;2.80;99.90;;;;;;4950881;28;20582;-73
2021/01/05 03:37:48;;;;;;;10.93;7.50;;;2.80;99.90;;;;;;4950901;28;20736;-73
2021/01/05 03:40:15;;;;;;;10.27;7.82;;;2.80;99.90;;;;;;4952188;28;20376;-73
2021/01/05 03:42:42;;;;;;;10.75;8.13;;;2.60;99.90;;;;;;4947529;28;20374;-73
2021/01/05 03:45:17;;;;;;;13.75;8.90;;;2.70;1.00;;;;;;4948389;28;21219;-74
2021/01/05 03:47:44;;;;;;;12.32;8.15;;;2.60;1.00;;;;;;4947520;28;20213;-74
2021/01/05 03:50:13;;;;;;;13.45;8.25;;;2.60;99.90;;;;;;4951601;28;20201;-74
2021/01/05 03:52:40;;;;;;;10.25;7.75;;;2.80;99.90;;;;;;4947227;28;20237;-74
2021/01/05 03:55:09;;;;;;;13.95;9.13;;;2.80;1.00;;;;;;4950409;28;20968;-73
2021/01/05 03:57:36;;;;;;;13.20;8.57;;;2.70;1.00;;;;;;4951135;28;20243;-72
2021/01/05 04:00:05;;;;;;;10.50;7.63;;;2.70;1.00;;;;;;4952281;28;20230;-73
2021/01/05 04:02:32;;;;;;;14.80;9.48;;;2.70;1.00;;;;;;4950023;28;20250;-74
2021/01/05 04:04:59;;;;;;;15.77;9.38;;;2.70;1.00;;;;;;4954161;29;20206;-74
2021/01/05 04:07:27;;;;;;;12.45;8.65;;;2.70;99.90;;;;;;4952024;28;20207;-73
2021/01/05 04:09:54;;;;;;;14.57;8.90;;;2.70;99.90;;;;;;4949417;29;20266;-73
2021/01/05 04:12:21;;;;;;;13.70;8.70;;;2.70;1.00;;;;;;4949208;28;20336;-74
2021/01/05 04:14:48;;;;;;;12.98;8.90;;;2.70;1.00;;;;;;4957396;28;20212;-74
2021/01/05 04:17:16;;;;;;;13.52;9.05;;;2.70;99.90;;;;;;4951421;28;20213;-74
2021/01/05 04:19:43;;;;;;;15.55;10.48;;;2.80;99.90;;;;;;4950884;29;20717;-74
2021/01/05 04:22:10;;;;;;;16.85;9.70;;;2.80;8.40;;;;;;4950172;28;20582;-73
2021/01/05 04:24:38;;;;;;;17.38;10.93;;;2.80;1.00;;;;;;4950191;28;20221;-73
2021/01/05 04:27:05;;;;;;;18.40;11.35;;;2.70;99.90;;;;;;4949333;28;20210;-74
2021/01/05 04:29:32;;;;;;;16.92;9.73;;;2.70;99.90;;;;;;4964498;28;20280;-73
2021/01/05 04:32:00;;;;;;;15.95;10.35;;;2.80;1.00;;;;;;4947849;28;20236;-73
2021/01/05 04:34:27;;;;;;;14.88;9.30;;;2.70;99.90;;;;;;4950324;28;20298;-73
2021/01/05 04:36:54;;;;;;;17.88;12.15;;;2.80;1.00;;;;;;4948197;29;20218;-73
2021/01/05 04:39:21;;;;;;;17.95;11.00;;;2.80;99.90;;;;;;4949186;28;20228;-73
2021/01/05 04:41:59;;;;;;;14.80;10.43;;;2.70;99.90;;;;;;4948203;28;20244;-74
2021/01/05 04:44:29;;;;;;;22.23;12.13;;;2.80;1.00;;;;;;4945210;28;20275;-74
2021/01/05 04:47:03;;;;;;;20.88;12.73;;;2.70;1.00;;;;;;4945283;28;20246;-74
2021/01/05 04:50:00;;;;;;;19.50;12.27;;;2.80;99.90;;;;;;4949091;28;20267;-74
2021/01/05 04:52:33;;;;;;;23.70;13.63;;;2.80;99.90;;;;;;4946120;28;20234;-75
2021/01/05 04:55:05;;;;;;;21.05;13.35;;;2.70;99.90;;;;;;4948996;29;20667;-73
2021/01/05 04:57:36;;;;;;;22.83;13.82;;;2.70;1.00;;;;;;4949778;29;20688;-74
2021/01/05 05:00:17;;;;;;;19.83;12.35;;;2.70;99.90;;;;;;4947980;29;20669;-74
2021/01/05 05:02:53;;;;;;;17.90;12.32;;;2.70;1.00;;;;;;4954533;28;20241;-72
2021/01/05 05:05:46;;;;;;;24.08;14.00;;;2.60;99.90;;;;;;4946500;28;20215;-74
2021/01/05 05:08:37;;;;;;;26.02;14.65;;;2.60;99.90;;;;;;4949834;28;20200;-74
2021/01/05 05:11:08;;;;;;;25.30;13.63;;;2.60;49.10;;;;;;4948770;28;20218;-75
2021/01/05 05:13:47;;;;;;;21.58;15.15;;;2.60;32.70;;;;;;4949093;28;20324;-72
2021/01/05 05:16:32;;;;;;;23.75;13.95;;;2.80;1.00;;;;;;4949634;28;20752;-74
2021/01/05 05:19:08;;;;;;;24.13;14.13;;;2.90;1.00;;;;;;4948088;29;20738;-74
2021/01/05 05:21:39;;;;;;;23.63;15.30;;;2.90;99.90;;;;;;4949443;28;20304;-73
2021/01/05 05:24:20;;;;;;;26.45;14.57;;;2.70;99.90;;;;;;4963365;28;20223;-74
2021/01/05 05:26:55;;;;;;;24.15;14.07;;;2.90;1.00;;;;;;4948389;29;20233;-74
2021/01/05 05:29:39;;;;;;;22.27;14.48;;;2.90;1.00;;;;;;4962976;28;20753;-73
2021/01/05 05:32:16;;;;;;;20.02;13.45;;;2.80;99.90;;;;;;4948250;28;20238;-73
2021/01/05 05:34:53;;;;;;;28.20;15.55;;;2.80;1.00;;;;;;4945929;29;20208;-73
2021/01/05 05:37:33;;;;;;;23.33;14.00;;;2.80;99.90;;;;;;4944563;28;20203;-73
2021/01/05 05:40:12;;;;;;;25.85;14.70;;;2.70;99.90;;;;;;4949768;29;20827;-74
2021/01/05 05:43:20;;;;;;;24.05;13.75;;;2.70;1.00;;;;;;4947313;28;20232;-74
2021/01/05 05:45:54;;;;;;;22.60;14.43;;;2.70;99.90;;;;;;4945534;28;20214;-73
2021/01/05 05:48:30;;;;;;;25.58;14.95;;;2.90;1.00;;;;;;4953446;28;20268;-75
2021/01/05 05:51:05;;;;;;;27.05;15.65;;;2.90;99.90;;;;;;4948446;29;20212;-75
2021/01/05 05:53:36;;;;;;;22.52;14.68;;;2.90;99.90;;;;;;4946997;28;20226;-75
2021/01/05 05:56:08;;;;;;;26.75;16.35;;;3.00;99.90;;;;;;4949081;28;20879;-75
2021/01/05 05:58:39;;;;;;;23.95;14.60;;;3.10;1.00;;;;;;4946958;28;20210;-75
2021/01/05 06:01:11;;;;;;;23.30;14.83;;;3.00;99.90;;;;;;4950292;28;20500;-73
2021/01/05 06:03:38;;;;;;;19.10;12.85;;;3.00;99.90;;;;;;4946564;28;20583;-74
2021/01/05 06:06:06;;;;;;;22.38;14.57;;;3.00;1.00;;;;;;4948642;28;20262;-74
2021/01/05 06:08:33;;;;;;;21.05;13.32;;;3.10;1.00;;;;;;4947071;28;20276;-74
2021/01/05 06:11:02;;;;;;;24.00;14.65;;;3.00;1.00;;;;;;4948841;28;20266;-74
2021/01/05 06:13:29;;;;;;;25.20;15.80;;;2.90;99.90;;;;;;4948137;28;20299;-73
2021/01/05 06:15:56;;;;;;;25.45;15.35;;;3.00;99.90;;;;;;4947453;28;20283;-73
2021/01/05 06:18:24;;;;;;;25.92;14.80;;;3.00;99.90;;;;;;4945992;28;20210;-73
2021/01/05 06:20:51;;;;;;;23.83;16.52;;;3.00;99.90;;;;;;4948334;28;21470;-73
2021/01/05 06:23:18;;;;;;;19.50;13.15;;;3.10;99.90;;;;;;4946840;28;20229;-73
2021/01/05 06:25:46;;;;;;;23.45;13.98;;;3.10;99.90;;;;;;4948874;28;20207;-74
2021/01/05 06:28:14;;;;;;;22.52;13.30;;;3.10;99.90;;;;;;4944210;28;20234;-74
2021/01/05 06:30:41;;;;;;;21.02;13.00;;;3.10;1.00;;;;;;4945237;28;20282;-72
2021/01/05 06:33:08;;;;;;;20.23;13.18;;;3.10;1.00;;;;;;4947134;29;20227;-74
2021/01/05 06:35:36;;;;;;;23.25;14.27;;;3.10;99.90;;;;;;4948173;28;20622;-74
2021/01/05 06:38:03;;;;;;;25.08;13.95;;;3.20;1.00;;;;;;4947300;28;20630;-73
2021/01/05 06:40:31;;;;;;;22.25;13.75;;;3.20;1.00;;;;;;4946995;28;20244;-74
2021/01/05 06:42:58;;;;;;;21.98;13.73;;;3.20;1.00;;;;;;4943756;28;20795;-73
2021/01/05 06:45:29;;;;;;;21.40;14.20;;;3.10;1.00;;;;;;4945155;28;20231;-74
2021/01/05 06:47:56;;;;;;;22.15;13.60;;;2.90;99.90;;;;;;4939405;28;20676;-76
2021/01/05 06:50:26;;;;;;;22.55;13.82;;;2.80;22.30;;;;;;4948396;28;20610;-75
2021/01/05 06:52:54;;;;;;;23.30;13.73;;;2.90;4.30;;;;;;4944959;28;20235;-75
2021/01/05 06:55:22;;;;;;;18.88;13.25;;;3.00;1.00;;;;;;4949078;28;20217;-75
2021/01/05 06:57:50;;;;;;;26.30;15.27;;;3.10;1.00;;;;;;4944582;28;20205;-74
2021/01/05 07:00:20;;;;;;;24.88;14.60;;;3.10;1.00;;;;;;4950426;28;20238;-75
2021/01/05 07:02:47;;;;;;;26.70;15.25;;;3.10;1.00;;;;;;4945658;28;20850;-75
2021/01/05 07:05:16;;;;;;;25.83;14.65;;;3.20;1.00;;;;;;4948630;28;20218;-73
2021/01/05 07:07:43;;;;;;;21.55;13.40;;;3.20;1.00;;;;;;4946195;28;20292;-74
2021/01/05 07:10:13;;;;;;;23.35;13.82;;;3.30;99.90;;;;;;4946662;28;20291;-76
2021/01/05 07:12:40;;;;;;;21.23;13.80;;;3.30;99.90;;;;;;4951523;28;20229;-77
2021/01/05 07:15:09;;;;;;;21.20;13.95;;;3.10;1.00;;;;;;4952985;28;20204;-76
2021/01/05 07:17:36;;;;;;;21.83;14.85;;;3.10;18.00;;;;;;4947185;28;20219;-73
2021/01/05 07:20:04;;;;;;;21.83;14.02;;;3.20;28.90;;;;;;4942915;28;20229;-75
2021/01/05 07:22:31;;;;;;;21.48;14.05;;;3.20;1.00;;;;;;4961680;28;20229;-76
2021/01/05 07:24:59;;;;;;;24.85;14.35;;;3.20;49.70;;;;;;4947743;28;20253;-75
2021/01/05 07:27:27;;;;;;;26.27;15.30;;;3.20;97.00;;;;;;4961844;28;20218;-73
2021/01/05 07:29:54;;;;;;;23.65;13.73;;;3.20;63.40;;;;;;4947300;28;20204;-76
2021/01/05 07:32:22;;;;;;;21.02;13.73;;;3.20;99.90;;;;;;4943183;28;20229;-77
2021/01/05 07:34:49;;;;;;;20.13;13.90;;;3.20;99.90;;;;;;4948230;28;20209;-73
2021/01/05 07:37:19;;;;;;;26.20;15.23;;;3.20;99.90;;;;;;4937453;28;20219;-75
2021/01/05 07:39:47;;;;;;;25.58;18.10;;;3.20;99.90;;;;;;4938828;28;20491;-76
2021/01/05 07:42:18;;;;;;;24.67;16.73;;;3.20;99.90;;;;;;4950834;28;20490;-75
2021/01/05 07:44:48;;;;;;;24.40;16.35;;;3.20;99.90;;;;;;4943804;28;20213;-74
2021/01/05 07:47:16;;;;;;;24.00;14.45;;;3.10;99.90;;;;;;4943521;28;20276;-75
2021/01/05 07:49:45;;;;;;;26.80;14.70;;;3.20;99.90;;;;;;4949128;28;20686;-75
2021/01/05 07:52:20;;;;;;;26.98;15.90;;;3.30;99.90;;;;;;4961050;28;20236;-75
2021/01/05 07:54:47;;;;;;;24.08;15.13;;;3.30;99.90;;;;;;4941875;28;20234;-75
2021/01/05 07:57:15;;;;;;;21.45;14.07;;;3.40;99.90;;;;;;4940197;28;20208;-75
2021/01/05 07:59:42;;;;;;;22.02;13.90;;;3.10;99.90;;;;;;4941146;28;20232;-75
2021/01/05 08:02:11;;;;;;;23.63;15.60;;;3.10;99.90;;;;;;4942551;28;20256;-73
2021/01/05 08:04:41;;;;;;;24.10;15.35;;;3.10;99.90;;;;;;4938419;28;20237;-74
2021/01/05 08:07:09;;;;;;;23.35;15.90;;;3.10;99.90;;;;;;4941288;28;20214;-75
2021/01/05 08:09:38;;;;;;;22.95;15.90;;;3.10;99.90;;;;;;4943572;28;20212;-75
2021/01/05 08:12:11;;;;;;;25.35;15.45;;;3.10;99.90;;;;;;4947331;28;20329;-73
2021/01/05 08:14:38;;;;;;;21.83;13.32;;;3.10;99.90;;;;;;4948885;28;20215;-77
2021/01/05 08:17:05;;;;;;;25.00;14.60;;;3.10;99.90;;;;;;4946928;28;20296;-74
2021/01/05 08:19:33;;;;;;;25.83;15.73;;;3.10;1.00;;;;;;4948146;28;20223;-74
2021/01/05 08:22:00;;;;;;;24.05;14.15;;;3.00;1.00;;;;;;4948952;28;20251;-73
2021/01/05 08:24:27;;;;;;;28.88;14.57;;;3.10;1.00;;;;;;4951130;28;20216;-73
2021/01/05 08:26:54;;;;;;;25.98;15.30;;;3.00;1.00;;;;;;4949619;28;21123;-73
2021/01/05 08:29:21;;;;;;;24.05;14.77;;;3.00;1.00;;;;;;4948332;28;20200;-73
2021/01/05 08:31:49;;;;;;;22.13;13.73;;;3.10;1.00;;;;;;4947890;28;20913;-74
2021/01/05 08:34:17;;;;;;;26.35;15.05;;;3.10;1.00;;;;;;4942081;28;20305;-74
2021/01/05 08:36:45;;;;;;;26.20;14.70;;;3.10;1.00;;;;;;4947348;28;20267;-76
2021/01/05 08:39:13;;;;;;;19.00;13.27;;;3.10;99.90;;;;;;4941764;28;21079;-75
2021/01/05 08:41:42;;;;;;;22.05;13.75;;;3.10;99.90;;;;;;4946433;28;20218;-75
2021/01/05 08:44:10;;;;;;;25.25;13.25;;;3.10;1.00;;;;;;4948051;28;20204;-72
2021/01/05 08:46:40;;;;;;;24.65;13.90;;;3.00;1.00;;;;;;4950207;28;20209;-73
2021/01/05 08:49:07;;;;;;;19.73;12.65;;;3.10;1.00;;;;;;4963575;28;20218;-72
2021/01/05 08:51:34;;;;;;;16.65;11.70;;;3.10;1.00;;;;;;4948494;28;20207;-71
2021/01/05 08:54:02;;;;;;;17.30;11.40;;;3.10;1.00;;;;;;4944588;28;20312;-73
2021/01/05 08:56:30;;;;;;;19.60;11.40;;;3.10;1.00;;;;;;4948898;28;20233;-74
2021/01/05 08:58:57;;;;;;;19.13;12.40;;;3.10;1.00;;;;;;4946508;28;20216;-71
2021/01/05 09:01:25;;;;;;;18.40;10.70;;;3.10;1.00;;;;;;4948590;28;20310;-74
2021/01/05 09:03:53;;;;;;;16.67;11.88;;;3.10;1.00;;;;;;4946459;28;20236;-71
2021/01/05 09:06:22;;;;;;;16.40;11.07;;;3.00;1.00;;;;;;4950295;28;20784;-71
2021/01/05 09:08:49;;;;;;;20.90;13.07;;;2.90;1.00;;;;;;4942922;28;20253;-71
2021/01/05 09:11:19;;;;;;;18.63;11.15;;;2.90;1.00;;;;;;4947663;28;20247;-71
2021/01/05 09:13:47;;;;;;;17.00;11.68;;;2.90;1.00;;;;;;4949527;28;20651;-71
2021/01/05 09:16:22;;;;;;;15.32;10.35;;;2.90;1.00;;;;;;4946422;28;20204;-72
2021/01/05 09:18:49;;;;;;;17.60;11.75;;;3.00;1.00;;;;;;4947983;28;20719;-71
2021/01/05 09:21:16;;;;;;;17.55;11.90;;;3.10;1.00;;;;;;4946207;28;20261;-72
2021/01/05 09:23:44;;;;;;;18.52;11.48;;;3.10;1.00;;;;;;4947758;28;20762;-71
2021/01/05 09:26:20;;;;;;;16.23;12.40;;;3.10;1.00;;;;;;4947150;28;20226;-72
2021/01/05 09:28:47;;;;;;;15.27;10.57;;;3.10;1.00;;;;;;4945102;28;20225;-72
2021/01/05 09:31:15;;;;;;;13.45;9.52;;;3.10;1.00;;;;;;4945807;28;20218;-72
2021/01/05 09:33:43;;;;;;;18.25;11.70;;;3.20;1.00;;;;;;4948054;28;20236;-72
2021/01/05 09:36:11;;;;;;;15.27;10.90;;;3.10;1.00;;;;;;4947264;28;20236;-72
2021/01/05 09:38:40;;;;;;;15.43;10.05;;;3.10;1.00;;;;;;4944414;28;20574;-72
2021/01/05 09:41:07;;;;;;;14.95;10.85;;;3.10;1.00;;;;;;4945251;28;20271;-72
2021/01/05 09:43:35;;;;;;;17.35;12.00;;;3.10;1.00;;;;;;4947662;28;20282;-71
2021/01/05 09:46:03;;;;;;;16.13;11.45;;;3.10;1.00;;;;;;4948086;28;20212;-71
2021/01/05 09:48:33;;;;;;;17.02;11.75;;;3.10;1.00;;;;;;4942412;28;20241;-71
2021/01/05 09:51:00;;;;;;;15.55;11.07;;;3.20;1.00;;;;;;4942437;28;20204;-72
2021/01/05 09:53:27;;;;;;;17.65;10.77;;;3.20;1.00;;;;;;4946614;28;20285;-75
2021/01/05 09:55:54;;;;;;;14.63;11.02;;;3.20;1.00;;;;;;4947264;28;20209;-71
2021/01/05 09:58:21;;;;;;;15.52;9.95;;;3.10;99.90;;;;;;4948532;28;20215;-72
2021/01/05 10:00:49;;;;;;;17.40;11.57;;;3.10;1.00;;;;;;4943601;28;20715;-72
2021/01/05 10:03:17;;;;;;;17.30;11.82;;;3.10;1.00;;;;;;4945195;28;20246;-72
2021/01/05 10:05:44;;;;;;;49.70;25.55;;;3.10;1.00;;;;;;4948563;28;20572;-71
2021/01/05 10:08:11;;;;;;;24.35;14.88;;;3.10;1.00;;;;;;4944527;28;20265;-72
2021/01/05 10:10:38;;;;;;;19.27;13.18;;;3.10;1.00;;;;;;4948007;28;20213;-72
2021/01/05 10:13:05;;;;;;;16.60;12.57;;;3.20;1.00;;;;;;4947485;28;20227;-71
2021/01/05 10:15:32;;;;;;;20.95;10.75;;;3.20;1.00;;;;;;4944202;28;20255;-71
2021/01/05 10:18:04;;;;;;;15.05;10.43;;;3.20;1.00;;;;;;4945079;28;20204;-71
2021/01/05 10:20:32;;;;;;;17.85;11.15;;;3.10;1.00;;;;;;4944044;28;20225;-71
2021/01/05 10:22:59;;;;;;;17.77;10.98;;;3.10;1.00;;;;;;4962092;28;20233;-73
2021/01/05 10:25:26;;;;;;;16.67;11.95;;;3.20;1.00;;;;;;4946482;28;20276;-72
2021/01/05 10:27:54;;;;;;;15.18;10.73;;;3.20;1.00;;;;;;4963114;28;20218;-72
2021/01/05 10:30:22;;;;;;;19.00;11.50;;;3.10;1.00;;;;;;4946625;28;20209;-72
2021/01/05 10:32:50;;;;;;;16.02;10.38;;;3.10;1.00;;;;;;4945643;28;20236;-74
2021/01/05 10:35:20;;;;;;;16.13;11.13;;;3.10;1.00;;;;;;4948876;28;20207;-73
2021/01/05 10:37:48;;;;;;;16.00;10.18;;;3.20;1.00;;;;;;4965742;28;20610;-73
2021/01/05 10:40:17;;;;;;;19.85;12.52;;;3.20;1.00;;;;;;4956011;28;20233;-72
2021/01/05 10:42:47;;;;;;;18.67;11.57;;;3.20;1.00;;;;;;4949307;28;20293;-72
2021/01/05 10:45:18;;;;;;;17.10;13.18;;;3.20;1.00;;;;;;4944024;28;20685;-73
2021/01/05 10:47:45;;;;;;;15.85;11.18;;;3.20;1.00;;;;;;4943962;28;20226;-71
2021/01/05 10:50:18;;;;;;;19.83;12.38;;;3.20;1.00;;;;;;4946223;28;20202;-72
2021/01/05 10:52:46;;;;;;;19.38;12.00;;;3.30;1.00;;;;;;4945731;28;20225;-72
2021/01/05 10:55:14;;;;;;;20.17;13.30;;;3.30;1.00;;;;;;4948284;28;20757;-73
2021/01/05 10:57:42;;;;;;;18.60;11.20;;;3.20;1.00;;;;;;4949192;28;20208;-73
2021/01/05 11:00:10;;;;;;;20.05;11.00;;;3.30;1.00;;;;;;4950121;28;20282;-75
2021/01/05 11:02:37;;;;;;;16.95;11.27;;;3.30;1.00;;;;;;4946186;28;20285;-75
2021/01/05 11:05:06;;;;;;;17.65;12.13;;;3.30;1.00;;;;;;4948968;28;20211;-72
2021/01/05 11:07:34;;;;;;;20.80;12.60;;;3.40;1.00;;;;;;4949626;29;20237;-77
2021/01/05 11:10:01;;;;;;;18.70;12.70;;;3.40;1.00;;;;;;4946601;28;20205;-74
2021/01/05 11:12:28;;;;;;;17.88;13.35;;;3.50;1.00;;;;;;4946047;28;20233;-71
2021/01/05 11:14:55;;;;;;;17.15;12.27;;;3.40;1.00;;;;;;4939230;28;20628;-70
2021/01/05 11:17:22;;;;;;;17.85;10.93;;;3.50;1.00;;;;;;4949626;28;20306;-71
2021/01/05 11:19:50;;;;;;;19.08;13.25;;;3.50;1.00;;;;;;4950670;28;20223;-71
2021/01/05 11:22:18;;;;;;;17.10;11.60;;;3.40;1.00;;;;;;4947812;28;20603;-71
2021/01/05 11:24:49;;;;;;;15.90;11.55;;;3.50;1.00;;;;;;4949050;28;20213;-70
2021/01/05 11:27:18;;;;;;;18.30;12.07;;;3.50;1.00;;;;;;4947655;28;20220;-72
2021/01/05 11:29:45;;;;;;;20.05;13.57;;;3.50;1.00;;;;;;4951188;28;20217;-71
2021/01/05 11:32:14;;;;;;;25.55;15.25;;;3.60;1.00;;;;;;4949190;28;20236;-70
2021/01/05 11:34:42;;;;;;;18.60;11.82;;;3.60;99.90;;;;;;4947294;28;20219;-71
2021/01/05 11:37:14;;;;;;;13.20;9.48;;;3.50;99.90;;;;;;4950124;28;20213;-71
2021/01/05 11:39:46;;;;;;;18.00;12.05;;;3.50;1.00;;;;;;4943902;28;20248;-71
2021/01/05 11:42:16;;;;;;;16.08;10.60;;;3.60;1.00;;;;;;4951646;28;20236;-73
2021/01/05 11:44:45;;;;;;;18.20;11.02;;;3.70;99.90;;;;;;4951426;28;20211;-72
2021/01/05 11:47:13;;;;;;;16.88;11.20;;;3.70;99.90;;;;;;4955175;28;20239;-71
2021/01/05 11:49:40;;;;;;;19.48;12.20;;;3.70;99.90;;;;;;4952434;28;20225;-72
2021/01/05 11:52:08;;;;;;;15.90;11.85;;;3.80;99.90;;;;;;4947920;28;20566;-72
2021/01/05 11:54:35;;;;;;;15.55;10.85;;;3.80;99.90;;;;;;4952873;28;20226;-72
2021/01/05 11:57:02;;;;;;;16.23;11.30;;;3.70;99.90;;;;;;4952847;28;21037;-71
2021/01/05 11:59:30;;;;;;;16.05;11.35;;;3.70;99.90;;;;;;4951556;28;20209;-73
2021/01/05 12:02:00;;;;;;;17.70;11.18;;;3.70;99.90;;;;;;4951204;28;20219;-72
2021/01/05 12:04:29;;;;;;;17.15;12.32;;;3.70;99.90;;;;;;4952700;28;20226;-72
2021/01/05 12:06:56;;;;;;;15.93;11.68;;;3.70;99.90;;;;;;4952701;28;20268;-72
2021/01/05 12:09:26;;;;;;;74.20;35.22;;;3.70;99.90;;;;;;4952650;28;20206;-73
2021/01/05 12:11:56;;;;;;;29.85;16.50;;;3.60;99.90;;;;;;4950415;28;20272;-72
2021/01/05 12:14:23;;;;;;;20.38;13.10;;;3.70;99.90;;;;;;4950581;28;20219;-72
2021/01/05 12:16:52;;;;;;;17.48;11.15;;;3.70;99.90;;;;;;4948453;28;20271;-72
2021/01/05 12:19:22;;;;;;;19.30;11.45;;;3.60;99.90;;;;;;4952084;28;20217;-72
2021/01/05 12:21:51;;;;;;;18.75;12.02;;;3.60;99.90;;;;;;4950732;28;20229;-71
2021/01/05 12:24:20;;;;;;;16.88;11.55;;;3.50;99.90;;;;;;4950633;28;20269;-72
2021/01/05 12:26:48;;;;;;;14.38;11.02;;;3.50;99.90;;;;;;4949653;28;20226;-71
2021/01/05 12:29:17;;;;;;;17.77;13.25;;;3.50;99.90;;;;;;4946297;28;20236;-71
2021/01/05 12:31:46;;;;;;;18.08;11.05;;;3.50;99.90;;;;;;4947075;28;20231;-73
2021/01/05 12:34:19;;;;;;;18.25;12.15;;;3.60;99.90;;;;;;4956846;28;20209;-71
2021/01/05 12:36:47;;;;;;;21.38;13.15;;;3.60;99.90;;;;;;4949126;28;20923;-72
2021/01/05 12:39:17;;;;;;;20.80;12.15;;;3.60;99.90;;;;;;4950090;28;20209;-71
2021/01/05 12:41:44;;;;;;;20.85;13.20;;;3.60;99.90;;;;;;4954163;28;20221;-72
2021/01/05 12:44:14;;;;;;;20.25;13.07;;;3.60;99.90;;;;;;4951769;28;20219;-71
2021/01/05 12:46:42;;;;;;;20.02;13.23;;;3.60;99.90;;;;;;4945328;28;20217;-71
2021/01/05 12:49:13;;;;;;;19.05;12.82;;;3.60;99.90;;;;;;4948954;28;20215;-72
2021/01/05 12:51:44;;;;;;;17.35;13.25;;;3.60;1.00;;;;;;4947688;28;20224;-72
2021/01/05 12:54:16;;;;;;;20.95;13.88;;;3.50;1.00;;;;;;4963876;28;20218;-71
2021/01/05 12:56:59;;;;;;;21.48;13.43;;;3.50;1.00;;;;;;4951241;28;20203;-71
2021/01/05 12:59:26;;;;;;;24.27;13.18;;;3.50;1.00;;;;;;4945415;28;20223;-72
2021/01/05 13:01:56;;;;;;;20.33;12.52;;;3.50;1.00;;;;;;4950756;28;20231;-71
2021/01/05 13:04:24;;;;;;;21.75;13.65;;;3.40;1.00;;;;;;4953700;28;20210;-72